createdAt,value
2023-04-01T00:02:17.409Z,98807.42
2023-04-01T00:04:48.234Z,98805.95
2023-04-01T00:07:19.206Z,98809.91
2023-04-01T00:09:48.948Z,98807.27
2023-04-01T00:12:19.551Z,98807.02
2023-04-01T00:14:50.219Z,98808.19
2023-04-01T00:17:21.137Z,98807.03
2023-04-01T00:19:51.816Z,98804.88
2023-04-01T00:22:22.737Z,98806.67
2023-04-01T00:24:53.671Z,98807.63
2023-04-01T00:27:22.753Z,98809.34
2023-04-01T00:29:53.418Z,98807.14
2023-04-01T00:32:24.667Z,98801.59
2023-04-01T00:34:55.466Z,98803.36
2023-04-01T00:37:26.251Z,98800.49
2023-04-01T00:39:57.804Z,98798.75
2023-04-01T00:42:28.440Z,98793.43
2023-04-01T00:44:59.415Z,98797.22
2023-04-01T00:47:30.287Z,98795.48
2023-04-01T00:50:02.244Z,98794.08
2023-04-01T00:52:32.977Z,98792.89
2023-04-01T00:55:05.963Z,98788.45
2023-04-01T00:57:38.592Z,98789.13
2023-04-01T01:00:19.482Z,98789.68
2023-04-01T01:02:52.268Z,98784.75
2023-04-01T01:05:31.006Z,98783.28
2023-04-01T01:08:16.524Z,98785.10
2023-04-01T01:10:51.398Z,98783.16
2023-04-01T01:13:30.717Z,98780.08
2023-04-01T01:16:07.374Z,98781.03
2023-04-01T01:18:46.568Z,98780.20
2023-04-01T01:21:43.131Z,98776.18
2023-04-01T01:24:27.129Z,98775.27
2023-04-01T01:27:11.205Z,98770.85
2023-04-01T01:30:11.378Z,98772.48
2023-04-01T01:33:12.199Z,98773.58
2023-04-01T01:35:48.003Z,98772.63
2023-04-01T01:38:22.732Z,98773.48
2023-04-01T01:40:56.672Z,98774.09
2023-04-01T01:43:33.428Z,98772.39
2023-04-01T01:46:07.899Z,98771.19
2023-04-01T01:48:40.517Z,98771.91
2023-04-01T01:51:11.152Z,98771.49
2023-04-01T01:53:41.893Z,98771.72
2023-04-01T01:56:13.468Z,98773.20
2023-04-01T01:58:46.486Z,98773.90
2023-04-01T02:01:21.429Z,98773.17
2023-04-01T02:03:53.244Z,98776.39
2023-04-01T02:06:26.543Z,98776.95
2023-04-01T02:09:01.036Z,98778.11
2023-04-01T02:11:37.480Z,98776.16
2023-04-01T02:14:11.933Z,98776.23
2023-04-01T02:16:50.494Z,98772.63
2023-04-01T02:19:22.743Z,98769.66
2023-04-01T02:21:58.208Z,98771.06
2023-04-01T02:24:31.818Z,98770.00
2023-04-01T02:27:02.821Z,98769.60
2023-04-01T02:29:32.226Z,98768.11
2023-04-01T02:32:03.709Z,98768.35
2023-04-01T02:34:35.710Z,98770.65
2023-04-01T02:37:06.567Z,98773.13
2023-04-01T02:39:37.287Z,98774.52
2023-04-01T02:42:08.172Z,98774.12
2023-04-01T02:44:39.158Z,98778.83
2023-04-01T02:47:08.292Z,98779.98
2023-04-01T02:49:39.326Z,98786.05
2023-04-01T02:52:08.390Z,98787.76
2023-04-01T02:54:39.176Z,98786.73
2023-04-01T02:57:09.856Z,98785.91
2023-04-01T02:59:40.918Z,98789.25
2023-04-01T03:02:10.068Z,98792.59
2023-04-01T03:04:40.865Z,98790.59
2023-04-01T03:07:11.874Z,98793.30
2023-04-01T03:09:40.993Z,98793.02
2023-04-01T03:12:11.799Z,98792.82
2023-04-01T03:14:42.553Z,98795.93
2023-04-01T03:17:13.250Z,98795.14
2023-04-01T03:19:43.936Z,98794.67
2023-04-01T03:22:14.604Z,98796.61
2023-04-01T03:24:45.197Z,98795.39
2023-04-01T03:27:15.852Z,98797.86
2023-04-01T03:29:46.452Z,98799.45
2023-04-01T03:32:17.351Z,98802.09
2023-04-01T03:34:48.435Z,98801.88
2023-04-01T03:37:19.093Z,98804.35
2023-04-01T03:39:49.741Z,98807.13
2023-04-01T03:42:20.500Z,98806.52
2023-04-01T03:44:51.222Z,98809.64
2023-04-01T03:47:21.848Z,98809.98
2023-04-01T03:49:52.499Z,98810.14
2023-04-01T03:52:23.466Z,98814.01
2023-04-01T03:54:52.571Z,98817.56
2023-04-01T03:57:23.235Z,98814.46
2023-04-01T03:59:53.937Z,98817.11
2023-04-01T04:02:24.704Z,98822.79
2023-04-01T04:04:55.766Z,98825.49
2023-04-01T04:07:24.783Z,98826.05
2023-04-01T04:09:55.450Z,98828.45
2023-04-01T04:12:26.241Z,98831.92
2023-04-01T04:14:57.005Z,98829.71
2023-04-01T04:17:27.604Z,98836.06
2023-04-01T04:19:58.284Z,98838.70
2023-04-01T04:22:28.908Z,98839.67
2023-04-01T04:24:59.556Z,98839.90
2023-04-01T04:27:30.158Z,98841.67
2023-04-01T04:30:00.843Z,98844.05
2023-04-01T04:32:32.848Z,98847.20
2023-04-01T04:35:03.789Z,98849.13
2023-04-01T04:37:34.588Z,98850.85
2023-04-01T04:40:15.114Z,98851.64
2023-04-01T04:42:45.716Z,98850.25
2023-04-01T04:45:17.032Z,98857.54
2023-04-01T04:47:47.655Z,98853.36
2023-04-01T04:50:19.112Z,98861.72
2023-04-01T04:52:49.722Z,98859.59
2023-04-01T04:55:20.587Z,98861.31
2023-04-01T04:57:51.220Z,98867.06
2023-04-01T05:00:23.843Z,98867.77
2023-04-01T05:02:54.590Z,98872.69
2023-04-01T05:05:25.341Z,98873.08
2023-04-01T05:07:55.971Z,98877.34
2023-04-01T05:10:32.086Z,98876.70
2023-04-01T05:13:02.704Z,98879.23
2023-04-01T05:15:42.017Z,98879.16
2023-04-01T05:18:12.667Z,98882.95
2023-04-01T05:20:48.990Z,98883.14
2023-04-01T05:23:20.370Z,98888.73
2023-04-01T05:25:51.556Z,98888.23
2023-04-01T05:28:22.346Z,98888.71
2023-04-01T05:30:53.376Z,98890.38
2023-04-01T05:33:24.088Z,98887.70
2023-04-01T05:35:54.840Z,98891.79
2023-04-01T05:38:25.449Z,98888.13
2023-04-01T05:41:01.197Z,98891.41
2023-04-01T05:43:31.855Z,98894.02
2023-04-01T05:46:02.634Z,98898.56
2023-04-01T05:48:33.333Z,98898.31
2023-04-01T05:51:04.646Z,98896.91
2023-04-01T05:53:35.257Z,98902.17
2023-04-01T05:56:07.363Z,98900.65
2023-04-01T05:58:38.477Z,98899.35
2023-04-01T06:01:15.825Z,98900.38
2023-04-01T06:03:47.191Z,98901.80
2023-04-01T06:06:24.866Z,98904.56
2023-04-01T06:08:59.008Z,98907.11
2023-04-01T06:11:42.078Z,98911.20
2023-04-01T06:14:25.600Z,98912.16
2023-04-01T06:17:13.492Z,98916.11
2023-04-01T06:19:52.648Z,98914.95
2023-04-01T06:22:50.230Z,98917.35
2023-04-01T06:25:36.324Z,98921.42
2023-04-01T06:28:35.694Z,98923.42
2023-04-01T06:31:11.785Z,98924.34
2023-04-01T06:33:59.775Z,98927.23
2023-04-01T06:36:43.946Z,98929.02
2023-04-01T06:39:42.689Z,98927.90
2023-04-01T06:42:32.157Z,98930.66
2023-04-01T06:45:15.038Z,98933.17
2023-04-01T06:48:26.361Z,98933.11
2023-04-01T06:51:01.309Z,98934.25
2023-04-01T06:53:44.119Z,98936.08
2023-04-01T06:56:19.044Z,98941.27
2023-04-01T06:58:54.034Z,98946.70
2023-04-01T07:01:29.096Z,98944.23
2023-04-01T07:04:06.169Z,98945.96
2023-04-01T07:06:40.817Z,98945.13
2023-04-01T07:09:17.422Z,98951.34
2023-04-01T07:12:17.056Z,98949.48
2023-04-01T07:14:51.020Z,98948.73
2023-04-01T07:17:28.709Z,98954.36
2023-04-01T07:20:06.342Z,98958.02
2023-04-01T07:22:41.367Z,98960.27
2023-04-01T07:25:17.449Z,98966.98
2023-04-01T07:27:49.016Z,98965.80
2023-04-01T07:30:23.454Z,98967.81
2023-04-01T07:32:59.529Z,98971.92
2023-04-01T07:35:37.219Z,98971.83
2023-04-01T07:38:27.932Z,98973.86
2023-04-01T07:41:09.571Z,98974.58
2023-04-01T07:43:57.987Z,98977.64
2023-04-01T07:46:47.109Z,98981.38
2023-04-01T07:49:23.096Z,98982.75
2023-04-01T07:52:01.502Z,98989.27
2023-04-01T07:54:39.528Z,98992.35
2023-04-01T07:57:19.102Z,98994.13
2023-04-01T07:59:59.921Z,98998.62
2023-04-01T08:02:45.376Z,99003.12
2023-04-01T08:05:25.893Z,99003.77
2023-04-01T08:08:06.648Z,99008.91
2023-04-01T08:10:44.625Z,99011.04
2023-04-01T08:13:26.118Z,99017.79
2023-04-01T08:16:05.032Z,99018.70
2023-04-01T08:18:47.712Z,99020.40
2023-04-01T08:21:22.646Z,99021.00
2023-04-01T08:23:57.517Z,99024.23
2023-04-01T08:26:35.697Z,99029.59
2023-04-01T08:29:11.854Z,99031.88
2023-04-01T08:31:50.086Z,99033.77
2023-04-01T08:34:25.338Z,99036.56
2023-04-01T08:37:01.797Z,99038.70
2023-04-01T08:39:37.850Z,99037.77
2023-04-01T08:42:41.559Z,99038.86
2023-04-01T08:45:24.013Z,99036.31
2023-04-01T08:48:15.348Z,99037.95
2023-04-01T08:51:19.367Z,99039.15
2023-04-01T08:54:18.395Z,99041.34
2023-04-01T08:57:01.317Z,99045.28
2023-04-01T08:59:59.530Z,99046.58
2023-04-01T09:02:56.482Z,99048.16
2023-04-01T09:06:00.696Z,99049.02
2023-04-01T09:08:48.085Z,99052.52
2023-04-01T09:11:28.233Z,99057.08
2023-04-01T09:14:28.795Z,99057.61
2023-04-01T09:17:39.280Z,99058.23
2023-04-01T09:20:47.325Z,99063.46
2023-04-01T09:23:48.910Z,99064.26
2023-04-01T09:26:38.357Z,99070.70
2023-04-01T09:29:32.498Z,99071.75
2023-04-01T09:32:19.289Z,99075.09
2023-04-01T09:35:03.920Z,99081.54
2023-04-01T09:37:42.696Z,99083.32
2023-04-01T09:40:19.147Z,99084.85
2023-04-01T09:43:07.544Z,99088.95
2023-04-01T09:45:56.377Z,99097.77
2023-04-01T09:48:47.955Z,99096.79
2023-04-01T09:51:32.324Z,99097.05
2023-04-01T09:54:23.702Z,99101.70
2023-04-01T09:57:42.364Z,99103.43
2023-04-01T10:00:46.538Z,99108.35
2023-04-01T10:03:54.342Z,99114.66
2023-04-01T10:07:03.815Z,99117.61
2023-04-01T10:10:15.981Z,99121.04
2023-04-01T10:13:23.431Z,99127.71
2023-04-01T10:16:27.373Z,99131.04
2023-04-01T10:19:39.354Z,99133.88
2023-04-01T10:22:32.317Z,99133.73
2023-04-01T10:25:47.832Z,99132.09
2023-04-01T10:29:12.434Z,99137.14
2023-04-01T10:32:17.911Z,99138.37
2023-04-01T10:35:24.917Z,99145.90
2023-04-01T10:38:15.460Z,99145.91
2023-04-01T10:41:09.302Z,99147.95
2023-04-01T10:44:08.611Z,99147.48
2023-04-01T10:47:13.937Z,99151.04
2023-04-01T10:50:26.252Z,99150.24
2023-04-01T10:53:16.806Z,99149.95
2023-04-01T10:56:27.003Z,99154.64
2023-04-01T10:59:47.301Z,99156.21
2023-04-01T11:02:54.890Z,99154.27
2023-04-01T11:06:02.759Z,99160.06
2023-04-01T11:09:15.135Z,99158.42
2023-04-01T11:12:28.517Z,99160.70
2023-04-01T11:15:27.343Z,99162.11
2023-04-01T11:18:40.584Z,99165.37
2023-04-01T11:21:35.044Z,99164.12
2023-04-01T11:24:35.598Z,99166.48
2023-04-01T11:27:20.440Z,99165.80
2023-04-01T11:30:03.624Z,99165.66
2023-04-01T11:32:47.697Z,99175.79
2023-04-01T11:36:09.498Z,99180.27
2023-04-01T11:39:02.272Z,99192.21
2023-04-01T11:41:41.836Z,99196.52
2023-04-01T11:44:21.436Z,99200.29
2023-04-01T11:47:19.012Z,99204.80
2023-04-01T11:50:05.034Z,99213.98
2023-04-01T11:52:54.216Z,99222.66
2023-04-01T11:55:50.398Z,99225.93
2023-04-01T11:58:39.465Z,99226.16
2023-04-01T12:01:27.801Z,99231.39
2023-04-01T12:04:17.973Z,99227.19
2023-04-01T12:06:58.011Z,99235.71
2023-04-01T12:09:37.692Z,99237.77
2023-04-01T12:12:24.953Z,99244.41
2023-04-01T12:15:06.723Z,99241.83
2023-04-01T12:17:47.416Z,99243.88
2023-04-01T12:20:44.150Z,99248.79
2023-04-01T12:23:34.403Z,99253.63
2023-04-01T12:26:24.887Z,99254.02
2023-04-01T12:29:08.429Z,99257.63
2023-04-01T12:31:49.134Z,99267.62
2023-04-01T12:34:39.558Z,99267.30
2023-04-01T12:37:19.772Z,99269.17
2023-04-01T12:40:16.807Z,99272.55
2023-04-01T12:43:06.672Z,99273.88
2023-04-01T12:45:39.977Z,99275.29
2023-04-01T12:48:36.078Z,99275.95
2023-04-01T12:51:25.763Z,99274.92
2023-04-01T12:54:19.633Z,99276.69
2023-04-01T12:57:04.186Z,99278.86
2023-04-01T12:59:56.642Z,99283.24
2023-04-01T13:02:41.247Z,99289.94
2023-04-01T13:05:25.896Z,99291.08
2023-04-01T13:08:33.088Z,99292.17
2023-04-01T13:11:16.597Z,99295.21
2023-04-01T13:14:32.031Z,99298.94
2023-04-01T13:17:15.009Z,99303.91
2023-04-01T13:20:05.008Z,99303.36
2023-04-01T13:22:52.138Z,99305.59
2023-04-01T13:25:32.748Z,99308.98
2023-04-01T13:28:13.686Z,99313.28
2023-04-01T13:30:55.437Z,99312.15
2023-04-01T13:33:33.726Z,99313.91
2023-04-01T13:36:17.975Z,99318.58
2023-04-01T13:39:16.280Z,99320.60
2023-04-01T13:42:05.434Z,99321.08
2023-04-01T13:44:40.382Z,99323.55
2023-04-01T13:48:02.086Z,99324.80
2023-04-01T13:50:52.985Z,99327.57
2023-04-01T13:53:41.294Z,99332.30
2023-04-01T13:56:25.517Z,99335.05
2023-04-01T13:59:35.403Z,99337.50
2023-04-01T14:02:25.173Z,99342.67
2023-04-01T14:05:26.478Z,99346.52
2023-04-01T14:08:10.818Z,99349.48
2023-04-01T14:10:52.477Z,99350.66
2023-04-01T14:13:35.225Z,99352.33
2023-04-01T14:16:25.491Z,99356.21
2023-04-01T14:19:09.285Z,99357.95
2023-04-01T14:21:49.060Z,99361.88
2023-04-01T14:24:37.068Z,99362.55
2023-04-01T14:27:38.918Z,99360.55
2023-04-01T14:30:38.824Z,99365.52
2023-04-01T14:33:22.852Z,99365.88
2023-04-01T14:36:05.205Z,99369.63
2023-04-01T14:38:52.965Z,99371.59
2023-04-01T14:41:41.118Z,99370.50
2023-04-01T14:45:16.911Z,99370.47
2023-04-01T14:47:53.092Z,99379.52
2023-04-01T14:50:25.474Z,99381.10
2023-04-01T14:53:15.324Z,99389.75
2023-04-01T14:55:53.499Z,99390.27
2023-04-01T14:58:26.227Z,99393.73
2023-04-01T15:01:14.852Z,99395.85
2023-04-01T15:04:00.270Z,99406.77
2023-04-01T15:06:57.143Z,99411.94
2023-04-01T15:09:39.491Z,99416.54
2023-04-01T15:12:23.948Z,99420.74
2023-04-01T15:15:15.529Z,99425.48
2023-04-01T15:17:56.633Z,99429.53
2023-04-01T15:20:35.861Z,99431.33
2023-04-01T15:23:21.433Z,99431.05
2023-04-01T15:26:23.056Z,99427.30
2023-04-01T15:29:12.054Z,99436.13
2023-04-01T15:31:52.679Z,99436.52
2023-04-01T15:34:54.343Z,99437.88
2023-04-01T15:37:36.496Z,99439.73
2023-04-01T15:40:19.263Z,99444.60
2023-04-01T15:43:09.952Z,99448.82
2023-04-01T15:45:50.247Z,99451.02
2023-04-01T15:48:39.541Z,99453.30
2023-04-01T15:51:30.012Z,99457.30
2023-04-01T15:54:46.506Z,99463.55
2023-04-01T15:57:26.492Z,99472.58
2023-04-01T16:00:03.766Z,99472.37
2023-04-01T16:02:49.382Z,99470.92
2023-04-01T16:05:35.131Z,99474.94
2023-04-01T16:08:18.839Z,99477.69
2023-04-01T16:11:00.441Z,99479.48
2023-04-01T16:13:56.033Z,99483.03
2023-04-01T16:16:39.551Z,99482.24
2023-04-01T16:19:28.689Z,99490.42
2023-04-01T16:22:05.157Z,99498.69
2023-04-01T16:24:47.533Z,99492.72
2023-04-01T16:27:25.861Z,99498.34
2023-04-01T16:30:25.835Z,99504.73
2023-04-01T16:33:02.609Z,99510.25
2023-04-01T16:35:42.524Z,99517.21
2023-04-01T16:38:20.533Z,99522.77
2023-04-01T16:41:02.059Z,99524.04
2023-04-01T16:43:42.917Z,99527.25
2023-04-01T16:46:29.761Z,99532.06
2023-04-01T16:49:16.249Z,99534.64
2023-04-01T16:51:53.905Z,99541.68
2023-04-01T16:54:36.433Z,99545.23
2023-04-01T16:57:21.143Z,99550.06
2023-04-01T17:00:01.914Z,99553.14
2023-04-01T17:02:36.803Z,99556.33
2023-04-01T17:05:10.651Z,99563.73
2023-04-01T17:07:56.700Z,99567.59
2023-04-01T17:10:47.466Z,99575.00
2023-04-01T17:13:30.202Z,99576.09
2023-04-01T17:16:15.013Z,99585.69
2023-04-01T17:19:00.080Z,99589.50
2023-04-01T17:21:48.056Z,99598.24
2023-04-01T17:24:55.936Z,99601.31
2023-04-01T17:27:37.875Z,99608.65
2023-04-01T17:30:35.597Z,99611.87
2023-04-01T17:33:41.252Z,99614.83
2023-04-01T17:36:23.198Z,99620.59
2023-04-01T17:39:15.619Z,99624.75
2023-04-01T17:41:56.425Z,99628.95
2023-04-01T17:44:42.664Z,99636.48
2023-04-01T17:47:25.049Z,99642.59
2023-04-01T17:50:03.432Z,99651.52
2023-04-01T17:52:40.602Z,99658.71
2023-04-01T17:55:35.527Z,99659.59
2023-04-01T17:58:29.891Z,99665.68
2023-04-01T18:01:16.754Z,99671.70
2023-04-01T18:04:08.657Z,99678.61
2023-04-01T18:06:52.573Z,99687.05
2023-04-01T18:09:36.492Z,99688.48
2023-04-01T18:12:15.897Z,99689.40
2023-04-01T18:15:12.398Z,99695.85
2023-04-01T18:17:53.912Z,99699.19
2023-04-01T18:20:35.209Z,99702.28
2023-04-01T18:23:20.177Z,99703.24
2023-04-01T18:26:06.212Z,99706.13
2023-04-01T18:28:40.718Z,99711.17
2023-04-01T18:31:18.383Z,99718.39
2023-04-01T18:34:00.008Z,99724.18
2023-04-01T18:36:41.576Z,99729.30
2023-04-01T18:39:20.106Z,99734.75
2023-04-01T18:42:08.295Z,99737.44
2023-04-01T18:44:48.116Z,99743.52
2023-04-01T18:47:28.473Z,99747.66
2023-04-01T18:50:18.718Z,99758.48
2023-04-01T18:52:52.938Z,99762.21
2023-04-01T18:55:41.767Z,99770.45
2023-04-01T18:58:23.918Z,99775.58
2023-04-01T19:01:16.187Z,99780.63
2023-04-01T19:03:58.070Z,99782.75
2023-04-01T19:06:34.536Z,99785.77
2023-04-01T19:09:20.373Z,99794.75
2023-04-01T19:12:06.124Z,99793.66
2023-04-01T19:14:52.576Z,99798.46
2023-04-01T19:18:17.469Z,99803.27
2023-04-01T19:20:38.303Z,99806.16
2023-04-01T19:23:29.687Z,99812.72
2023-04-01T19:25:59.749Z,99819.38
2023-04-01T19:28:44.275Z,99824.21
2023-04-01T19:31:34.279Z,99829.06
2023-04-01T19:34:17.552Z,99831.54
2023-04-01T19:36:54.604Z,99836.18
2023-04-01T19:39:40.315Z,99840.20
2023-04-01T19:42:26.948Z,99842.16
2023-04-01T19:45:08.753Z,99849.13
2023-04-01T19:47:54.941Z,99848.33
2023-04-01T19:50:36.856Z,99849.94
2023-04-01T19:53:36.912Z,99851.66
2023-04-01T19:56:15.391Z,99852.27
2023-04-01T19:58:51.344Z,99857.02
2023-04-01T20:01:41.502Z,99863.41
2023-04-01T20:04:23.719Z,99866.41
2023-04-01T20:07:00.024Z,99874.95
2023-04-01T20:09:52.149Z,99876.68
2023-04-01T20:12:37.443Z,99882.91
2023-04-01T20:15:28.495Z,99887.86
2023-04-01T20:18:01.964Z,99892.02
2023-04-01T20:20:35.110Z,99895.13
2023-04-01T20:23:57.305Z,99896.33
2023-04-01T20:26:31.182Z,99904.09
2023-04-01T20:29:22.430Z,99903.42
2023-04-01T20:32:06.387Z,99906.50
2023-04-01T20:35:00.937Z,99910.98
2023-04-01T20:37:41.172Z,99910.79
2023-04-01T20:40:37.496Z,99916.98
2023-04-01T20:43:33.338Z,99919.81
2023-04-01T20:46:16.577Z,99922.35
2023-04-01T20:49:20.291Z,99932.10
2023-04-01T20:52:00.774Z,99931.38
2023-04-01T20:54:47.376Z,99937.60
2023-04-01T20:57:27.001Z,99940.77
2023-04-01T21:00:16.838Z,99945.73
2023-04-01T21:03:01.866Z,99945.42
2023-04-01T21:05:52.516Z,99948.90
2023-04-01T21:08:30.513Z,99950.69
2023-04-01T21:11:13.654Z,99954.90
2023-04-01T21:13:59.362Z,99952.56
2023-04-01T21:16:41.032Z,99956.89
2023-04-01T21:19:36.128Z,99963.14
2023-04-01T21:22:19.419Z,99967.70
2023-04-01T21:25:20.927Z,99974.40
2023-04-01T21:28:39.461Z,99979.70
2023-04-01T21:31:23.522Z,99982.73
2023-04-01T21:34:30.139Z,99992.11
2023-04-01T21:37:20.713Z,99997.52
2023-04-01T21:40:05.129Z,99996.74
2023-04-01T21:42:45.216Z,100002.20
2023-04-01T21:45:38.736Z,100007.84
2023-04-01T21:48:36.715Z,100011.11
2023-04-01T21:51:41.227Z,100010.81
2023-04-01T21:55:03.002Z,100016.27
2023-04-01T21:58:09.734Z,100016.73
2023-04-01T22:00:43.941Z,100020.04
2023-04-01T22:03:45.111Z,100025.39
2023-04-01T22:06:25.935Z,100032.05
2023-04-01T22:09:18.353Z,100030.02
2023-04-01T22:11:57.018Z,100036.09
2023-04-01T22:14:41.585Z,100036.90
2023-04-01T22:17:19.270Z,100041.49
2023-04-01T22:20:00.301Z,100046.32
2023-04-01T22:22:50.541Z,100047.42
2023-04-01T22:25:26.859Z,100055.58
2023-04-01T22:28:04.061Z,100057.83
2023-04-01T22:30:40.728Z,100059.98
2023-04-01T22:33:25.857Z,100062.90
2023-04-01T22:36:03.995Z,100065.15
2023-04-01T22:38:51.007Z,100068.57
2023-04-01T22:41:29.611Z,100074.08
2023-04-01T22:44:00.918Z,100075.39
2023-04-01T22:46:50.410Z,100079.33
2023-04-01T22:49:28.325Z,100086.17
2023-04-01T22:52:04.914Z,100091.61
2023-04-01T22:54:41.269Z,100093.52
2023-04-01T22:57:17.786Z,100101.68
2023-04-01T22:59:59.683Z,100102.02
2023-04-01T23:02:34.278Z,100105.87
2023-04-01T23:05:13.102Z,100111.35
2023-04-01T23:07:53.900Z,100114.08
2023-04-01T23:10:36.567Z,100115.52
2023-04-01T23:13:13.824Z,100123.52
2023-04-01T23:15:45.193Z,100123.14
2023-04-01T23:18:22.948Z,100127.17
2023-04-01T23:21:07.913Z,100126.32
2023-04-01T23:23:51.786Z,100136.95
2023-04-01T23:26:27.014Z,100136.98
2023-04-01T23:28:58.850Z,100142.09
2023-04-01T23:31:35.223Z,100137.80
2023-04-01T23:34:21.345Z,100137.06
2023-04-01T23:36:57.434Z,100140.17
2023-04-01T23:39:30.407Z,100142.60
2023-04-01T23:42:04.583Z,100150.30
2023-04-01T23:44:37.123Z,100152.38
2023-04-01T23:47:13.223Z,100156.54
2023-04-01T23:49:47.906Z,100162.44
2023-04-01T23:52:23.179Z,100174.15
2023-04-01T23:54:58.901Z,100171.43
2023-04-01T23:57:33.491Z,100179.38
